Overview Statistics Trail Chart Weather Telemetry Raw packets
 

This is the latest recevied weather packets stored in our database for station/object OE5RBO. If no packets are shown the sender has not sent any weather packets the latest 10 day(s).

<< 1 2 3 4 5 6 >>
Time Temp. Humidity Pressure Rain* Wind** Luminosity Snow
1788632215 18.89° C 86% 1023.6 hPa 6.86 mm - - -
1788631615 19.44° C 86% 1023.6 hPa 6.86 mm - - -
1788631014 19.44° C 84% 1023.5 hPa 6.86 mm - - -
1788630414 19.44° C 82% 1023.4 hPa 6.86 mm - - -
1788629813 20° C 80% 1023.2 hPa 6.86 mm - - -
1788629213 20.56° C 78% 1023.1 hPa 6.86 mm - - -
1788628613 20.56° C 77% 1023.1 hPa 6.86 mm - - -
1788628013 20.56° C 76% 1023.1 hPa 6.86 mm - - -
1788626812 21.11° C 74% 1023.1 hPa 6.86 mm - - -
1788626211 21.67° C 74% 1023 hPa 6.86 mm - - -
1788625611 21.67° C 74% 1023 hPa 6.86 mm - - -
1788625011 21.67° C 75% 1023 hPa 6.86 mm - - -
1788624410 21.67° C 72% 1022.9 hPa 6.86 mm - - -
1788623810 21.67° C 73% 1022.9 hPa 6.86 mm - - -
1788623209 21.67° C 75% 1022.9 hPa 6.86 mm - - -
1788622009 21.67° C 77% 1023.1 hPa 6.86 mm - - -
1788621409 21.11° C 78% 1023 hPa 6.86 mm - - -
1788620808 21.11° C 78% 1023 hPa 6.86 mm - - -
1788620207 20.56° C 81% 1023.1 hPa 6.86 mm - - -
1788619608 20.56° C 82% 1023 hPa 6.86 mm - - -
1788619007 21.11° C 80% 1023.1 hPa 6.86 mm - - -
1788618406 21.11° C 82% 1023.2 hPa 6.86 mm - - -
1788617806 20.56° C 83% 1023.1 hPa 6.86 mm - - -
1788616606 19.44° C 85% 1023.4 hPa 6.86 mm - - -
1788616005 19.44° C 84% 1023.4 hPa 6.86 mm - - -

* Rain since midnight (hover to see other rain measurements)
** Current wind speed in m/s (hover to see current wind gust speed)